Time;durP1;ratioP1;P1;durP2;ratioP2;P2;SDS_P1;SDS_P2;PMS_P1;PMS_P2;Temp;Humidity;BMP_temperature;BMP_pressure;BME280_temperature;BME280_humidity;BME280_pressure;Samples;Min_cycle;Max_cycle;Signal;HPM_P1;HPM_P2
2022/01/04 00:00:54;;;;;;;6.18;3.63;;;7.60;99.90;;;;;;4615190;28;9999972;-73
2022/01/04 00:03:19;;;;;;;5.15;4.28;;;7.60;99.90;;;;;;4954403;28;20061;-73
2022/01/04 00:05:45;;;;;;;5.88;3.85;;;7.60;99.90;;;;;;4960347;28;20467;-72
2022/01/04 00:08:13;;;;;;;4.85;4.00;;;7.60;99.90;;;;;;4962506;28;20520;-73
2022/01/04 00:10:38;;;;;;;8.90;3.95;;;7.60;99.90;;;;;;4961447;28;20062;-72
2022/01/04 00:13:23;;;;;;;6.57;3.65;;;7.60;99.90;;;;;;4959713;28;20039;-73
2022/01/04 00:15:54;;;;;;;6.82;3.13;;;7.60;99.90;;;;;;4960063;28;20583;-72
2022/01/04 00:18:20;;;;;;;5.13;3.00;;;7.60;99.90;;;;;;4960767;28;20113;-73
2022/01/04 00:20:47;;;;;;;3.88;2.60;;;7.60;99.90;;;;;;4956942;28;20019;-72
2022/01/04 00:23:13;;;;;;;3.75;2.80;;;7.60;99.90;;;;;;4959558;28;20510;-72
2022/01/04 00:25:38;;;;;;;6.78;3.05;;;7.60;99.90;;;;;;4959237;28;20035;-72
2022/01/04 00:28:07;;;;;;;6.30;2.85;;;7.60;99.90;;;;;;4961090;28;20173;-72
2022/01/04 00:30:37;;;;;;;7.68;3.38;;;7.60;99.90;;;;;;4957375;28;20490;-72
2022/01/04 00:33:05;;;;;;;3.38;2.90;;;7.60;99.90;;;;;;4964080;28;20046;-72
2022/01/04 00:35:31;;;;;;;4.97;3.47;;;7.60;99.90;;;;;;4957307;28;20553;-72
2022/01/04 00:37:57;;;;;;;4.28;3.28;;;7.60;99.90;;;;;;4958360;28;20038;-72
2022/01/04 00:40:24;;;;;;;4.85;3.33;;;7.60;99.90;;;;;;4957080;28;20920;-72
2022/01/04 00:42:50;;;;;;;6.43;3.50;;;7.60;99.90;;;;;;4964095;28;20039;-72
2022/01/04 00:45:16;;;;;;;5.55;3.97;;;7.60;99.90;;;;;;4961850;28;20137;-72
2022/01/04 00:49:09;;;;;;;7.80;3.53;;;7.60;99.90;;;;;;4954459;28;20455;-72
2022/01/04 00:50:29;;;;;;;9.27;3.83;;;7.60;99.90;;;;;;4963148;28;20049;-73
2022/01/04 00:52:56;;;;;;;7.18;4.07;;;7.60;99.90;;;;;;4954051;28;20094;-72
2022/01/04 00:55:22;;;;;;;7.65;4.10;;;7.60;99.90;;;;;;4964486;28;20058;-73
2022/01/04 00:57:47;;;;;;;7.68;4.38;;;7.60;99.90;;;;;;4960567;28;20023;-73
2022/01/04 01:00:15;;;;;;;7.38;4.68;;;7.60;99.90;;;;;;4959834;28;20082;-72
2022/01/04 01:02:41;;;;;;;7.03;4.30;;;7.60;99.90;;;;;;4954965;28;20035;-72
2022/01/04 01:05:08;;;;;;;7.43;4.55;;;7.70;99.90;;;;;;4959188;28;20502;-72
2022/01/04 01:07:35;;;;;;;7.05;4.07;;;7.60;99.90;;;;;;4962606;28;20291;-72
2022/01/04 01:10:49;;;;;;;7.63;3.80;;;7.60;99.90;;;;;;4959998;28;20035;-72
2022/01/04 01:12:48;;;;;;;8.93;3.90;;;7.60;99.90;;;;;;4954352;28;20050;-72
2022/01/04 01:15:14;;;;;;;10.05;4.05;;;7.70;99.90;;;;;;4963845;28;20027;-72
2022/01/04 01:17:39;;;;;;;7.72;4.38;;;7.70;99.90;;;;;;4963824;28;20046;-72
2022/01/04 01:20:07;;;;;;;7.28;3.67;;;7.70;99.90;;;;;;4965546;28;20747;-73
2022/01/04 01:22:33;;;;;;;5.97;3.53;;;7.70;99.90;;;;;;4961463;28;20403;-72
2022/01/04 01:24:59;;;;;;;7.03;3.92;;;7.70;99.90;;;;;;4960701;28;20035;-72
2022/01/04 01:27:24;;;;;;;6.80;3.28;;;7.70;99.90;;;;;;4968223;28;20031;-72
2022/01/04 01:29:50;;;;;;;6.68;3.63;;;7.70;99.90;;;;;;4966607;28;20158;-72
2022/01/04 01:32:16;;;;;;;8.02;3.92;;;7.70;99.90;;;;;;4959882;28;20034;-72
2022/01/04 01:34:42;;;;;;;7.55;3.53;;;7.70;99.90;;;;;;4960642;28;20089;-72
2022/01/04 01:37:08;;;;;;;6.53;3.40;;;7.70;99.90;;;;;;4966783;28;21433;-72
2022/01/04 01:39:34;;;;;;;7.20;3.53;;;7.70;99.90;;;;;;4967635;28;20441;-72
2022/01/04 01:41:59;;;;;;;6.88;3.78;;;7.60;99.90;;;;;;4965026;28;20027;-72
2022/01/04 01:44:25;;;;;;;8.15;3.83;;;7.60;99.90;;;;;;4965408;28;20648;-72
2022/01/04 01:46:51;;;;;;;7.15;3.60;;;7.60;99.90;;;;;;4959250;28;20097;-72
2022/01/04 01:49:17;;;;;;;7.82;4.32;;;7.60;99.90;;;;;;4955827;28;20981;-72
2022/01/04 01:51:43;;;;;;;11.25;4.30;;;7.60;99.90;;;;;;4963098;28;20117;-72
2022/01/04 01:54:08;;;;;;;5.28;3.30;;;7.60;99.90;;;;;;4957772;28;20026;-72
2022/01/04 01:56:34;;;;;;;7.95;4.18;;;7.60;99.90;;;;;;4966202;28;20047;-72
2022/01/04 01:59:00;;;;;;;8.23;4.32;;;7.60;99.90;;;;;;4965888;28;20089;-72
2022/01/04 02:01:26;;;;;;;9.68;4.00;;;7.60;99.90;;;;;;4959983;28;20026;-72
2022/01/04 02:03:51;;;;;;;10.40;4.53;;;7.60;99.90;;;;;;4968727;28;20081;-72
2022/01/04 02:06:18;;;;;;;10.55;4.22;;;7.60;99.90;;;;;;4959378;28;20030;-72
2022/01/04 02:08:44;;;;;;;9.60;4.10;;;7.50;99.90;;;;;;4961709;28;20031;-72
2022/01/04 02:11:11;;;;;;;10.57;3.90;;;7.60;99.90;;;;;;4965135;28;20038;-72
2022/01/04 02:13:36;;;;;;;8.35;4.25;;;7.50;99.90;;;;;;4964268;28;20458;-72
2022/01/04 02:16:02;;;;;;;7.20;4.18;;;7.50;99.90;;;;;;4958177;28;20162;-71
2022/01/04 02:18:28;;;;;;;7.65;4.20;;;7.50;99.90;;;;;;4970703;28;20019;-72
2022/01/04 02:20:54;;;;;;;7.03;3.92;;;7.50;99.90;;;;;;4960095;28;20662;-72
2022/01/04 02:23:20;;;;;;;9.88;3.72;;;7.50;99.90;;;;;;4964312;28;20118;-72
2022/01/04 02:25:48;;;;;;;6.50;3.58;;;7.60;99.90;;;;;;4954206;28;20030;-72
2022/01/04 02:28:18;;;;;;;12.00;4.07;;;7.60;99.90;;;;;;4967851;28;20042;-72
2022/01/04 02:30:44;;;;;;;5.38;3.53;;;7.60;99.90;;;;;;4963561;28;20042;-72
2022/01/04 02:33:09;;;;;;;9.18;4.43;;;7.50;99.90;;;;;;4960942;28;20042;-72
2022/01/04 02:35:35;;;;;;;8.98;4.32;;;7.50;99.90;;;;;;4960414;28;20027;-72
2022/01/04 02:38:01;;;;;;;13.57;4.57;;;7.60;99.90;;;;;;4979648;28;20033;-72
2022/01/04 02:40:28;;;;;;;9.48;4.50;;;7.50;99.90;;;;;;4965530;28;20114;-72
2022/01/04 02:42:54;;;;;;;7.03;4.10;;;7.50;99.90;;;;;;4956763;28;20023;-71
2022/01/04 02:45:20;;;;;;;8.35;3.85;;;7.50;99.90;;;;;;4963505;28;20030;-72
2022/01/04 02:47:46;;;;;;;8.05;4.13;;;7.50;99.90;;;;;;4974608;28;20031;-71
2022/01/04 02:50:12;;;;;;;8.52;3.75;;;7.50;99.90;;;;;;4961514;28;20476;-72
2022/01/04 02:52:38;;;;;;;8.50;3.88;;;7.50;99.90;;;;;;4950168;28;20027;-71
2022/01/04 02:55:10;;;;;;;8.57;4.25;;;7.50;99.90;;;;;;4958372;28;20094;-71
2022/01/04 02:57:36;;;;;;;8.00;4.20;;;7.50;99.90;;;;;;4964368;28;20221;-72
2022/01/04 03:00:05;;;;;;;6.88;3.90;;;7.50;99.90;;;;;;4966061;28;20054;-72
2022/01/04 03:02:30;;;;;;;7.50;4.10;;;7.50;99.90;;;;;;4970871;28;20037;-72
2022/01/04 03:04:56;;;;;;;9.73;4.60;;;7.50;99.90;;;;;;4965295;28;20039;-73
2022/01/04 03:07:21;;;;;;;8.55;4.13;;;7.50;99.90;;;;;;4954015;28;20070;-73
2022/01/04 03:09:47;;;;;;;7.75;3.92;;;7.50;99.90;;;;;;4956632;28;20090;-72
2022/01/04 03:12:13;;;;;;;6.72;4.50;;;7.50;99.90;;;;;;4964467;28;20406;-72
2022/01/04 03:14:39;;;;;;;8.30;4.30;;;7.50;99.90;;;;;;4966019;28;20065;-72
2022/01/04 03:17:04;;;;;;;7.65;4.35;;;7.50;99.90;;;;;;4964185;28;20499;-72
2022/01/04 03:19:30;;;;;;;7.93;4.28;;;7.50;99.90;;;;;;4951596;28;20114;-72
2022/01/04 03:21:56;;;;;;;7.47;4.70;;;7.50;99.90;;;;;;4965139;28;20034;-72
2022/01/04 03:24:21;;;;;;;6.85;4.32;;;7.50;99.90;;;;;;4957463;28;20035;-72
2022/01/04 03:26:47;;;;;;;8.18;4.90;;;7.50;99.90;;;;;;4958936;28;20064;-72
2022/01/04 03:29:15;;;;;;;9.35;4.30;;;7.50;99.90;;;;;;4964080;28;20043;-72
2022/01/04 03:31:42;;;;;;;7.68;4.40;;;7.40;99.90;;;;;;4958035;28;20070;-72
2022/01/04 03:34:09;;;;;;;8.60;4.45;;;7.50;99.90;;;;;;4958551;28;20038;-72
2022/01/04 03:36:35;;;;;;;9.70;5.00;;;7.50;99.90;;;;;;4960064;28;20030;-73
2022/01/04 03:39:04;;;;;;;7.03;4.80;;;7.40;99.90;;;;;;4966785;28;20022;-71
2022/01/04 03:41:31;;;;;;;7.80;4.45;;;7.40;99.90;;;;;;4963074;28;20058;-72
2022/01/04 03:43:57;;;;;;;6.82;4.35;;;7.40;99.90;;;;;;4958402;28;20031;-72
2022/01/04 03:46:23;;;;;;;7.57;4.50;;;7.40;99.90;;;;;;4958659;28;20299;-74
2022/01/04 03:48:49;;;;;;;7.45;4.90;;;7.30;99.90;;;;;;4959831;28;20035;-73
2022/01/04 03:51:15;;;;;;;7.28;4.40;;;7.30;99.90;;;;;;4965678;28;20387;-73
2022/01/04 03:53:41;;;;;;;8.65;5.10;;;7.30;99.90;;;;;;4961195;28;20030;-73
2022/01/04 03:56:07;;;;;;;8.10;4.88;;;7.30;99.90;;;;;;4965026;28;20086;-71
2022/01/04 03:58:33;;;;;;;8.45;5.18;;;7.30;99.90;;;;;;4954503;28;20023;-70
2022/01/04 04:01:00;;;;;;;6.78;5.32;;;7.30;99.90;;;;;;4961965;28;20031;-73
2022/01/04 04:03:26;;;;;;;7.88;5.10;;;7.30;99.90;;;;;;4962290;28;20035;-73
2022/01/04 04:05:52;;;;;;;13.23;5.75;;;7.30;99.90;;;;;;4961575;28;20027;-73
2022/01/04 04:08:17;;;;;;;7.38;5.00;;;7.30;99.90;;;;;;4960669;28;20047;-70
2022/01/04 04:10:43;;;;;;;8.52;5.10;;;7.30;99.90;;;;;;4963270;28;20051;-71
2022/01/04 04:13:09;;;;;;;10.30;5.15;;;7.30;99.90;;;;;;4959666;28;20094;-71
2022/01/04 04:15:34;;;;;;;7.38;4.75;;;7.30;99.90;;;;;;4954648;28;20073;-73
2022/01/04 04:18:00;;;;;;;13.80;4.80;;;7.30;99.90;;;;;;4956357;28;20035;-74
2022/01/04 04:20:26;;;;;;;6.75;4.80;;;7.30;99.90;;;;;;4962640;28;20027;-71
2022/01/04 04:22:51;;;;;;;5.90;5.30;;;7.30;99.90;;;;;;4960049;28;20066;-70
2022/01/04 04:25:17;;;;;;;6.20;4.72;;;7.30;99.90;;;;;;4958779;28;20031;-73
2022/01/04 04:27:43;;;;;;;5.75;4.85;;;7.30;99.90;;;;;;4961661;28;20391;-73
2022/01/04 04:30:09;;;;;;;10.55;5.13;;;7.30;99.90;;;;;;4967122;28;20038;-74
2022/01/04 04:32:35;;;;;;;6.20;4.78;;;7.30;99.90;;;;;;4966329;28;20106;-71
2022/01/04 04:35:01;;;;;;;5.57;4.93;;;7.30;99.90;;;;;;4964239;28;20117;-71
2022/01/04 04:37:27;;;;;;;7.95;4.35;;;7.30;99.90;;;;;;4966415;28;20265;-74
2022/01/04 04:39:53;;;;;;;5.03;4.32;;;7.30;99.90;;;;;;4959781;28;20039;-73
2022/01/04 04:42:18;;;;;;;5.68;5.05;;;7.30;99.90;;;;;;4958883;28;20106;-71
2022/01/04 04:44:45;;;;;;;6.25;4.90;;;7.30;99.90;;;;;;4965499;28;20503;-71
2022/01/04 04:47:11;;;;;;;4.95;4.20;;;7.30;99.90;;;;;;4964628;28;20558;-73
2022/01/04 04:49:36;;;;;;;6.28;4.32;;;7.30;99.90;;;;;;4969422;28;20027;-73
2022/01/04 04:52:02;;;;;;;5.82;4.68;;;7.30;99.90;;;;;;4965262;28;20859;-73
2022/01/04 04:54:29;;;;;;;5.70;4.80;;;7.30;99.90;;;;;;4969727;28;20030;-73
2022/01/04 04:56:55;;;;;;;5.53;4.80;;;7.30;99.90;;;;;;4959043;28;20028;-73
2022/01/04 04:59:21;;;;;;;5.35;4.38;;;7.30;99.90;;;;;;4959095;28;20030;-72
2022/01/04 05:01:46;;;;;;;5.93;4.78;;;7.30;99.90;;;;;;4965556;28;20391;-73
2022/01/04 05:04:12;;;;;;;4.70;3.90;;;7.30;99.90;;;;;;4967401;28;20085;-73
2022/01/04 05:06:37;;;;;;;4.55;3.30;;;7.30;99.90;;;;;;4966563;28;20023;-72
2022/01/04 05:09:03;;;;;;;5.47;3.20;;;7.30;99.90;;;;;;4959822;28;20055;-72
2022/01/04 05:11:29;;;;;;;3.58;2.72;;;7.20;99.90;;;;;;4965219;28;20101;-72
2022/01/04 05:13:56;;;;;;;3.10;2.80;;;7.30;99.90;;;;;;4967747;28;20090;-73
2022/01/04 05:16:21;;;;;;;3.25;2.90;;;7.20;99.90;;;;;;4960710;28;20027;-73
2022/01/04 05:18:47;;;;;;;5.15;3.13;;;7.20;99.90;;;;;;4964008;28;20459;-72
2022/01/04 05:21:13;;;;;;;3.80;3.15;;;7.20;99.90;;;;;;4967173;28;20031;-72
2022/01/04 05:23:38;;;;;;;3.85;3.10;;;7.20;99.90;;;;;;4969263;28;20045;-73
2022/01/04 05:26:04;;;;;;;3.67;3.10;;;7.20;99.90;;;;;;4970067;28;20510;-73
2022/01/04 05:28:29;;;;;;;3.85;3.22;;;7.20;99.90;;;;;;4969763;28;20027;-72
2022/01/04 05:30:55;;;;;;;5.78;3.20;;;7.20;99.90;;;;;;4965296;28;20039;-73
2022/01/04 05:33:20;;;;;;;4.28;3.30;;;7.20;99.90;;;;;;4954876;28;20015;-73
2022/01/04 05:35:48;;;;;;;5.95;3.13;;;7.20;99.90;;;;;;4965175;28;20050;-73
2022/01/04 05:38:14;;;;;;;4.93;3.35;;;7.20;99.90;;;;;;4960543;28;20093;-73
2022/01/04 05:40:40;;;;;;;4.25;2.85;;;7.20;99.90;;;;;;4961721;28;20031;-73
2022/01/04 05:43:05;;;;;;;3.78;2.80;;;7.20;99.90;;;;;;4970422;28;20027;-72
2022/01/04 05:45:31;;;;;;;3.60;2.67;;;7.20;99.90;;;;;;4962872;28;20093;-73
2022/01/04 05:47:57;;;;;;;3.95;3.03;;;7.20;99.90;;;;;;4966523;28;20122;-72
2022/01/04 05:50:23;;;;;;;4.18;3.40;;;7.20;99.90;;;;;;4964708;28;20053;-73
2022/01/04 05:52:49;;;;;;;5.53;3.55;;;7.20;99.90;;;;;;4961794;28;20483;-72
2022/01/04 05:55:15;;;;;;;4.95;3.28;;;7.10;99.90;;;;;;4967777;28;20034;-73
2022/01/04 05:57:40;;;;;;;4.78;2.78;;;7.10;99.90;;;;;;4963073;28;20081;-72
2022/01/04 06:00:07;;;;;;;1.65;1.55;;;7.10;99.90;;;;;;4953072;28;20130;-72
2022/01/04 06:02:33;;;;;;;4.05;2.15;;;7.10;99.90;;;;;;4960010;28;20059;-72
2022/01/04 06:04:59;;;;;;;3.58;2.25;;;7.10;99.90;;;;;;4966118;28;20034;-72
2022/01/04 06:07:25;;;;;;;4.00;2.97;;;7.10;99.90;;;;;;4964948;28;20046;-72
2022/01/04 06:09:53;;;;;;;5.30;4.07;;;7.00;99.90;;;;;;4965353;28;20041;-73
2022/01/04 06:14:58;;;;;;;5.70;4.80;;;7.00;99.90;;;;;;4963797;28;20031;-72
2022/01/04 06:17:31;;;;;;;7.45;5.18;;;7.00;99.90;;;;;;4963597;28;20034;-72
2022/01/04 06:19:58;;;;;;;6.47;5.28;;;7.00;99.90;;;;;;4960678;28;20031;-71
2022/01/04 06:22:25;;;;;;;8.10;5.72;;;7.00;99.90;;;;;;4961338;28;20042;-72
2022/01/04 06:24:51;;;;;;;7.28;5.70;;;7.00;99.90;;;;;;4960971;28;20049;-72
2022/01/04 06:27:17;;;;;;;7.55;6.03;;;7.00;99.90;;;;;;4958714;28;20038;-72
2022/01/04 06:29:43;;;;;;;10.13;6.32;;;7.10;99.90;;;;;;4969082;28;20034;-72
2022/01/04 06:32:10;;;;;;;8.93;6.55;;;7.00;99.90;;;;;;4955022;28;20376;-72
2022/01/04 06:34:37;;;;;;;10.15;6.80;;;7.10;99.90;;;;;;4958561;28;20042;-72
2022/01/04 06:37:03;;;;;;;13.10;8.65;;;7.10;99.90;;;;;;4969102;28;20041;-72
2022/01/04 06:39:29;;;;;;;11.80;8.27;;;7.00;99.90;;;;;;4967725;28;20495;-73
2022/01/04 06:41:54;;;;;;;11.55;8.70;;;7.10;99.90;;;;;;4968497;28;20035;-72
2022/01/04 06:44:20;;;;;;;11.85;8.40;;;7.00;99.90;;;;;;4970296;28;20038;-72
2022/01/04 06:46:46;;;;;;;12.80;8.90;;;7.10;99.90;;;;;;4961799;28;20026;-72
2022/01/04 06:49:13;;;;;;;12.25;8.68;;;7.10;99.90;;;;;;4960011;28;20032;-73
2022/01/04 06:51:39;;;;;;;15.23;7.85;;;7.10;99.90;;;;;;4964807;28;20514;-73
2022/01/04 06:54:06;;;;;;;15.13;8.30;;;7.10;99.90;;;;;;4967067;28;20058;-73
2022/01/04 06:56:31;;;;;;;13.02;8.57;;;7.10;99.90;;;;;;4962661;28;20031;-72
2022/01/04 06:58:57;;;;;;;13.40;8.98;;;7.00;99.90;;;;;;4968054;28;20085;-72
2022/01/04 07:01:23;;;;;;;13.00;9.32;;;7.10;99.90;;;;;;4953866;28;20578;-72
2022/01/04 07:03:48;;;;;;;17.50;10.05;;;7.10;99.90;;;;;;4956975;28;20023;-73
2022/01/04 07:06:14;;;;;;;14.60;10.50;;;7.10;99.90;;;;;;4957242;28;20018;-72
2022/01/04 07:08:39;;;;;;;14.43;9.63;;;7.10;99.90;;;;;;4615549;28;10000574;-73
2022/01/04 07:11:05;;;;;;;14.57;8.77;;;7.00;99.90;;;;;;4962090;28;20035;-73
2022/01/04 07:13:31;;;;;;;10.15;7.30;;;7.10;99.90;;;;;;4959498;28;20038;-72
2022/01/04 07:15:56;;;;;;;10.63;7.50;;;7.10;99.90;;;;;;4958667;28;20082;-73
2022/01/04 07:18:23;;;;;;;8.73;6.65;;;7.10;99.90;;;;;;4955960;28;20027;-70
2022/01/04 07:20:48;;;;;;;9.30;6.43;;;7.10;99.90;;;;;;4958980;28;20034;-73
2022/01/04 07:23:14;;;;;;;11.35;6.40;;;7.10;99.90;;;;;;4962351;28;20026;-73
2022/01/04 07:25:40;;;;;;;9.07;6.85;;;7.10;99.90;;;;;;4964447;28;20648;-73
2022/01/04 07:28:05;;;;;;;11.15;7.60;;;7.10;99.90;;;;;;4957665;28;20034;-73
2022/01/04 07:30:31;;;;;;;9.90;7.38;;;7.00;99.90;;;;;;4967342;28;20039;-73
2022/01/04 07:32:57;;;;;;;9.73;6.93;;;7.00;99.90;;;;;;4957329;28;20066;-72
2022/01/04 07:35:22;;;;;;;9.57;6.53;;;7.00;99.90;;;;;;4959073;28;20034;-73
2022/01/04 07:37:48;;;;;;;7.82;5.40;;;7.00;99.90;;;;;;4979716;28;20036;-72
2022/01/04 07:40:14;;;;;;;6.80;5.28;;;7.00;99.90;;;;;;4956740;28;20041;-72
2022/01/04 07:42:39;;;;;;;5.60;4.43;;;7.00;99.90;;;;;;4962119;28;20501;-72
2022/01/04 07:45:05;;;;;;;5.03;3.92;;;7.00;99.90;;;;;;4960983;28;20035;-72
2022/01/04 07:47:31;;;;;;;5.32;2.95;;;7.00;99.90;;;;;;4951545;28;20071;-72
2022/01/04 07:49:57;;;;;;;2.78;1.90;;;6.90;99.90;;;;;;4964766;28;20073;-73
2022/01/04 07:52:23;;;;;;;3.72;2.00;;;6.90;99.90;;;;;;4961797;28;20042;-72
2022/01/04 07:54:49;;;;;;;2.83;1.50;;;6.90;99.90;;;;;;4955989;28;20031;-72
2022/01/04 07:57:15;;;;;;;2.50;1.50;;;6.90;99.90;;;;;;4966058;28;20034;-72
2022/01/04 07:59:40;;;;;;;3.38;1.00;;;6.90;99.90;;;;;;4957132;28;20158;-72
2022/01/04 08:02:06;;;;;;;1.80;1.13;;;6.90;99.90;;;;;;4963578;28;20038;-72
2022/01/04 08:04:32;;;;;;;1.27;1.17;;;6.90;99.90;;;;;;4954535;28;20089;-72
2022/01/04 08:06:57;;;;;;;2.90;1.40;;;6.80;99.90;;;;;;4963648;28;20034;-73
2022/01/04 08:09:23;;;;;;;7.43;3.50;;;6.80;99.90;;;;;;4960864;28;20038;-73
2022/01/04 08:11:49;;;;;;;9.00;5.68;;;6.80;99.90;;;;;;4963502;28;20542;-72
2022/01/04 08:14:14;;;;;;;10.52;6.80;;;6.80;99.90;;;;;;4964630;28;20081;-72
2022/01/04 08:16:40;;;;;;;12.90;8.25;;;6.80;99.90;;;;;;4955162;28;20307;-73
2022/01/04 08:19:06;;;;;;;12.35;8.55;;;6.90;99.90;;;;;;4963849;28;20424;-73
2022/01/04 08:21:31;;;;;;;14.15;9.13;;;6.80;99.90;;;;;;4964444;28;20110;-73
2022/01/04 08:23:57;;;;;;;13.10;9.88;;;6.90;99.90;;;;;;4965873;28;21179;-72
2022/01/04 08:26:24;;;;;;;24.90;11.45;;;6.90;99.90;;;;;;4958712;28;20189;-73
2022/01/04 08:28:50;;;;;;;16.67;11.23;;;6.90;99.90;;;;;;4965177;28;20030;-73
2022/01/04 08:31:16;;;;;;;20.20;12.38;;;6.90;99.90;;;;;;4964360;28;20039;-72
2022/01/04 08:33:42;;;;;;;21.15;11.52;;;6.90;99.90;;;;;;4965379;28;20118;-72
2022/01/04 08:36:10;;;;;;;19.33;12.30;;;6.90;99.90;;;;;;4966733;28;20110;-73
2022/01/04 08:38:35;;;;;;;15.70;10.80;;;6.90;99.90;;;;;;4978975;28;20029;-73
2022/01/04 08:41:01;;;;;;;21.23;15.70;;;7.00;99.90;;;;;;4965032;28;20031;-73
2022/01/04 08:43:27;;;;;;;11.77;8.93;;;7.00;99.90;;;;;;4961640;28;20292;-73
2022/01/04 08:45:53;;;;;;;10.98;8.25;;;7.00;99.90;;;;;;4967580;28;20189;-72
2022/01/04 08:48:18;;;;;;;9.18;7.22;;;7.00;99.90;;;;;;4953756;28;20020;-72
2022/01/04 08:50:44;;;;;;;9.65;7.32;;;6.90;99.90;;;;;;4959321;28;20487;-72
2022/01/04 08:53:13;;;;;;;9.13;7.47;;;6.90;99.90;;;;;;4960894;28;20035;-73
2022/01/04 08:55:38;;;;;;;9.50;6.72;;;6.90;99.90;;;;;;4957659;28;20423;-72
2022/01/04 08:58:05;;;;;;;9.38;6.35;;;6.90;99.90;;;;;;4960338;28;20033;-72
2022/01/04 09:00:31;;;;;;;8.23;6.43;;;6.90;99.90;;;;;;4953490;28;20033;-72
2022/01/04 09:02:56;;;;;;;9.18;6.10;;;6.90;99.90;;;;;;4954049;28;20023;-73
2022/01/04 09:05:22;;;;;;;11.52;7.88;;;6.90;99.90;;;;;;4952367;28;20226;-72
2022/01/04 09:07:47;;;;;;;11.63;7.90;;;6.90;99.90;;;;;;4962477;28;20466;-72
2022/01/04 09:10:13;;;;;;;10.95;6.88;;;6.90;99.90;;;;;;4963329;28;20031;-72
2022/01/04 09:12:58;;;;;;;9.05;6.20;;;6.90;99.90;;;;;;4968124;28;20041;-73
2022/01/04 09:20:38;;;;;;;8.98;6.50;;;;;;;;;;4956673;28;20438;-73
2022/01/04 09:23:05;;;;;;;6.90;5.72;;;;;;;;;;4962401;28;20046;-72
2022/01/04 09:25:30;;;;;;;8.60;6.40;;;;;;;;;;4954951;28;20064;-72
2022/01/04 09:27:57;;;;;;;10.35;7.30;;;;;;;;;;4968376;28;20491;-73
2022/01/04 09:30:23;;;;;;;12.18;8.30;;;;;;;;;;4960242;28;20035;-73
2022/01/04 09:32:49;;;;;;;9.70;6.53;;;;;;;;;;4969818;28;20037;-72
2022/01/04 09:35:15;;;;;;;10.38;6.93;;;;;;;;;;4966257;28;20039;-73
2022/01/04 09:37:42;;;;;;;9.05;5.88;;;;;;;;;;4965898;28;20037;-73
2022/01/04 09:40:08;;;;;;;11.65;7.30;;;;;;;;;;4973495;28;20030;-74
2022/01/04 09:42:35;;;;;;;11.75;7.78;;;;;;;;;;4956976;28;20038;-72
2022/01/04 09:45:01;;;;;;;8.27;6.32;;;;;;;;;;4958793;28;20276;-73
2022/01/04 09:47:29;;;;;;;6.75;5.65;;;7.20;99.90;;;;;;4960208;28;21352;-73
2022/01/04 09:49:55;;;;;;;7.47;5.63;;;7.10;99.90;;;;;;4960063;28;20035;-73
2022/01/04 09:52:21;;;;;;;7.07;5.38;;;7.10;99.90;;;;;;4962093;28;20041;-73
2022/01/04 09:54:51;;;;;;;6.07;4.97;;;7.00;99.90;;;;;;4966149;28;20027;-74
2022/01/04 09:57:17;;;;;;;13.07;8.55;;;7.00;99.90;;;;;;4958932;28;20026;-72
2022/01/04 09:59:43;;;;;;;9.18;6.50;;;7.00;99.90;;;;;;4958300;28;20386;-73
2022/01/04 10:02:17;;;;;;;8.85;6.18;;;7.00;99.90;;;;;;4967813;28;20035;-72
2022/01/04 10:04:44;;;;;;;8.10;5.68;;;7.10;99.90;;;;;;4966525;28;20034;-73
2022/01/04 10:07:10;;;;;;;7.38;6.28;;;7.00;99.90;;;;;;4958218;28;20076;-73
2022/01/04 10:09:46;;;;;;;12.45;6.43;;;7.00;99.90;;;;;;4955586;28;20404;-72
2022/01/04 10:12:15;;;;;;;7.18;5.80;;;7.00;99.90;;;;;;4965804;28;20038;-72
2022/01/04 10:14:43;;;;;;;8.52;6.47;;;7.00;99.90;;;;;;4964155;28;20022;-72
2022/01/04 10:17:23;;;;;;;10.23;6.45;;;7.00;99.90;;;;;;4965469;28;20024;-72
2022/01/04 10:19:53;;;;;;;10.75;6.38;;;7.10;99.90;;;;;;4956083;28;20563;-72
2022/01/04 10:22:34;;;;;;;7.80;5.85;;;7.10;99.90;;;;;;4962899;28;20125;-73
2022/01/04 10:25:00;;;;;;;9.43;6.10;;;7.10;99.90;;;;;;4958044;28;20491;-73
2022/01/04 10:27:34;;;;;;;10.98;5.90;;;7.10;99.90;;;;;;4961725;28;20037;-73
2022/01/04 10:30:30;;;;;;;5.15;4.38;;;7.10;99.90;;;;;;4969846;28;20377;-73
2022/01/04 10:33:14;;;;;;;7.10;5.05;;;7.20;99.90;;;;;;4960656;28;20035;-72
2022/01/04 10:35:45;;;;;;;5.85;4.40;;;7.20;99.90;;;;;;4965621;28;20026;-72
2022/01/04 10:38:29;;;;;;;4.28;3.67;;;7.20;99.90;;;;;;4961780;28;20027;-73
2022/01/04 10:40:59;;;;;;;;;;;7.20;99.90;;;;;;4961849;28;20149;-73
2022/01/04 10:43:29;;;;;;;3.83;3.25;;;7.20;99.90;;;;;;4960702;28;19914;-73
2022/01/04 10:45:56;;;;;;;5.43;4.00;;;7.20;99.90;;;;;;4960931;28;20050;-73
2022/01/04 10:48:28;;;;;;;4.18;3.17;;;7.20;99.90;;;;;;4958817;28;20035;-73
2022/01/04 10:50:59;;;;;;;3.95;3.17;;;7.20;99.90;;;;;;4958329;28;20192;-73
2022/01/04 10:53:39;;;;;;;5.75;4.35;;;7.20;99.90;;;;;;4961967;28;20125;-73
2022/01/04 10:56:10;;;;;;;3.97;3.45;;;7.30;99.90;;;;;;4966568;28;20071;-72
2022/01/04 10:58:48;;;;;;;4.65;3.58;;;7.20;99.90;;;;;;4965241;28;20403;-72
2022/01/04 11:01:19;;;;;;;6.18;3.40;;;7.20;99.90;;;;;;4962838;28;20046;-72
2022/01/04 11:03:51;;;;;;;4.15;3.30;;;7.20;99.90;;;;;;4957601;28;20026;-72
2022/01/04 11:06:23;;;;;;;4.35;3.90;;;7.10;99.90;;;;;;4963872;28;20447;-73
2022/01/04 11:08:49;;;;;;;4.10;3.50;;;7.10;99.90;;;;;;4954841;28;20039;-73
2022/01/04 11:11:14;;;;;;;4.95;3.72;;;7.10;99.90;;;;;;4956492;28;20652;-73
2022/01/04 11:13:40;;;;;;;4.15;3.22;;;7.10;99.90;;;;;;4953973;28;20125;-73
2022/01/04 11:16:06;;;;;;;3.80;3.38;;;7.10;99.90;;;;;;4962728;28;20446;-72
2022/01/04 11:18:33;;;;;;;4.72;3.33;;;7.20;99.90;;;;;;4956815;28;20031;-72
2022/01/04 11:20:59;;;;;;;5.13;3.40;;;7.20;99.90;;;;;;4957610;28;20073;-72
2022/01/04 11:23:31;;;;;;;5.63;3.35;;;7.20;99.90;;;;;;4958866;28;20102;-73
2022/01/04 11:25:58;;;;;;;4.75;3.20;;;7.20;99.90;;;;;;4960202;28;20085;-73
2022/01/04 11:28:25;;;;;;;4.55;3.08;;;7.20;99.90;;;;;;4961520;28;20050;-72
2022/01/04 11:31:08;;;;;;;9.00;5.90;;;7.20;99.90;;;;;;4957688;28;20076;-72
2022/01/04 11:33:52;;;;;;;;;;;7.10;99.90;;;;;;4960766;28;20049;-72
2022/01/04 11:36:19;;;;;;;;;;;7.10;99.90;;;;;;4964925;28;19910;-72
2022/01/04 11:38:44;;;;;;;7.55;3.45;;;7.20;99.90;;;;;;4957602;28;19911;-73
2022/01/04 11:41:22;;;;;;;8.18;5.97;;;7.20;99.90;;;;;;4967841;28;20399;-72
2022/01/04 11:43:48;;;;;;;15.40;9.30;;;7.10;99.90;;;;;;4961947;28;20058;-72
2022/01/04 11:46:36;;;;;;;27.02;13.23;;;7.20;99.90;;;;;;4957560;28;20090;-72
2022/01/04 11:49:13;;;;;;;38.80;18.20;;;7.20;99.90;;;;;;4960647;28;20034;-72
2022/01/04 11:51:43;;;;;;;23.33;12.32;;;7.10;99.90;;;;;;4950700;28;20026;-72
2022/01/04 11:54:21;;;;;;;18.98;10.98;;;7.20;99.90;;;;;;4955437;28;20618;-72
2022/01/04 11:56:55;;;;;;;25.95;13.95;;;7.10;99.90;;;;;;4962263;28;20037;-73
2022/01/04 11:59:26;;;;;;;28.42;15.15;;;7.10;99.90;;;;;;4960562;28;20480;-72
2022/01/04 12:01:54;;;;;;;12.50;7.80;;;7.10;99.90;;;;;;4962413;28;20479;-73
2022/01/04 12:04:51;;;;;;;9.27;6.43;;;7.10;99.90;;;;;;4957694;28;20038;-73
2022/01/04 12:07:39;;;;;;;4.63;3.92;;;7.10;99.90;;;;;;4938825;28;20121;-73
2022/01/04 12:10:22;;;;;;;10.65;8.10;;;7.10;99.90;;;;;;4952529;28;20043;-72
2022/01/04 12:12:53;;;;;;;8.73;6.65;;;7.10;99.90;;;;;;4962133;28;20122;-72
2022/01/04 12:15:34;;;;;;;6.68;5.05;;;7.00;99.90;;;;;;4961878;28;20113;-73
2022/01/04 12:18:29;;;;;;;6.65;5.15;;;7.00;99.90;;;;;;4967352;28;20015;-71
2022/01/04 12:20:57;;;;;;;5.07;4.38;;;7.00;99.90;;;;;;4964672;28;20035;-72
2022/01/04 12:23:26;;;;;;;5.95;4.38;;;7.00;99.90;;;;;;4965742;28;20488;-72
2022/01/04 12:26:06;;;;;;;6.00;4.22;;;7.00;99.90;;;;;;4962597;28;20554;-73
2022/01/04 12:28:37;;;;;;;7.43;3.03;;;7.00;99.90;;;;;;4958605;28;20027;-71
2022/01/04 12:33:43;;;;;;;6.38;4.15;;;7.00;99.90;;;;;;4966263;28;20041;-72
2022/01/04 12:36:10;;;;;;;4.95;2.55;;;6.90;99.90;;;;;;4960618;28;20030;-72
2022/01/04 12:38:36;;;;;;;10.05;5.53;;;7.00;99.90;;;;;;4963171;28;20031;-73
2022/01/04 12:41:04;;;;;;;9.90;4.65;;;6.90;99.90;;;;;;4956936;28;20038;-72
2022/01/04 12:43:31;;;;;;;12.40;7.78;;;6.90;99.90;;;;;;4975348;28;20054;-72
2022/01/04 12:45:58;;;;;;;7.90;5.43;;;6.90;99.90;;;;;;4963984;28;20042;-72
2022/01/04 12:48:44;;;;;;;8.88;6.00;;;6.90;99.90;;;;;;4959185;28;20034;-72
2022/01/04 12:51:28;;;;;;;11.90;6.63;;;6.90;99.90;;;;;;4957463;28;20034;-72
2022/01/04 12:53:57;;;;;;;7.75;4.40;;;6.80;99.90;;;;;;4959255;28;20027;-73
2022/01/04 12:56:24;;;;;;;7.38;3.00;;;6.80;99.90;;;;;;4948778;28;20085;-72
2022/01/04 12:58:50;;;;;;;4.72;2.97;;;6.80;99.90;;;;;;4954966;28;20023;-71
2022/01/04 13:01:28;;;;;;;5.68;2.30;;;6.80;99.90;;;;;;4963123;28;20026;-72
2022/01/04 13:03:55;;;;;;;3.17;2.08;;;6.80;99.90;;;;;;4962601;28;20090;-73
2022/01/04 13:06:21;;;;;;;12.80;9.60;;;6.80;99.90;;;;;;4962988;28;20031;-72
2022/01/04 13:08:51;;;;;;;9.63;7.38;;;6.70;99.90;;;;;;4963381;28;20101;-72
2022/01/04 13:11:17;;;;;;;7.40;5.50;;;6.70;99.90;;;;;;4964097;28;20173;-72